createdAt,value
2023-05-22T00:01:57.458Z,9.25
2023-05-22T00:04:24.913Z,9.02
2023-05-22T00:06:55.459Z,9.88
2023-05-22T00:09:24.346Z,9.77
2023-05-22T00:11:51.758Z,9.77
2023-05-22T00:14:18.987Z,9.45
2023-05-22T00:16:48.592Z,9.27
2023-05-22T00:19:16.728Z,8.82
2023-05-22T00:21:44.489Z,9.18
2023-05-22T00:24:11.744Z,9.10
2023-05-22T00:26:38.804Z,9.05
2023-05-22T00:29:09.529Z,8.52
2023-05-22T00:31:37.187Z,9.55
2023-05-22T00:34:04.348Z,8.65
2023-05-22T00:36:31.456Z,8.88
2023-05-22T00:38:58.664Z,8.63
2023-05-22T00:41:26.210Z,9.40
2023-05-22T00:43:53.364Z,8.68
2023-05-22T00:46:24.729Z,8.98
2023-05-22T00:48:52.683Z,8.30
2023-05-22T00:51:23.593Z,8.77
2023-05-22T00:53:51.363Z,8.70
2023-05-22T00:56:22.032Z,8.93
2023-05-22T00:58:50.378Z,9.30
2023-05-22T01:01:18.129Z,9.57
2023-05-22T01:03:47.225Z,9.20
2023-05-22T01:06:17.873Z,10.40
2023-05-22T01:08:46.353Z,10.45
2023-05-22T01:11:39.715Z,9.27
2023-05-22T01:14:22.184Z,9.98
2023-05-22T01:17:03.344Z,10.18
2023-05-22T01:20:01.872Z,9.68
2023-05-22T01:23:01.008Z,10.07
2023-05-22T01:25:59.670Z,10.55
2023-05-22T01:29:01.228Z,10.15
2023-05-22T01:31:31.897Z,10.55
2023-05-22T01:34:03.270Z,10.88
2023-05-22T01:36:35.203Z,11.50
2023-05-22T01:39:06.111Z,11.30
2023-05-22T01:41:34.683Z,11.13
2023-05-22T01:44:02.974Z,11.45
2023-05-22T01:46:31.161Z,11.98
2023-05-22T01:48:59.076Z,10.93
2023-05-22T01:51:59.327Z,11.80
2023-05-22T01:54:38.271Z,11.55
2023-05-22T01:57:27.425Z,11.75
2023-05-22T02:00:07.882Z,12.00
2023-05-22T02:02:38.397Z,12.52
2023-05-22T02:05:07.742Z,12.23
2023-05-22T02:07:38.358Z,12.02
2023-05-22T02:10:12.654Z,11.98
2023-05-22T02:12:45.963Z,11.98
2023-05-22T02:15:15.885Z,12.10
2023-05-22T02:17:49.357Z,11.05
2023-05-22T02:20:32.223Z,11.68
2023-05-22T02:22:59.558Z,12.30
2023-05-22T02:25:26.593Z,12.40
2023-05-22T02:28:12.439Z,11.52
2023-05-22T02:31:10.505Z,10.85
2023-05-22T02:33:55.022Z,11.65
2023-05-22T02:36:55.474Z,11.25
2023-05-22T02:39:32.446Z,11.30
2023-05-22T02:45:14.716Z,11.45
2023-05-22T02:51:19.107Z,10.90
2023-05-22T02:57:01.503Z,11.93
2023-05-22T03:31:31.659Z,9.35
2023-05-22T03:58:28.663Z,9.40
2023-05-22T04:01:11.665Z,8.93
2023-05-22T04:03:38.805Z,8.70
2023-05-22T04:06:50.323Z,9.48
2023-05-22T04:09:17.581Z,8.95
2023-05-22T04:11:44.726Z,8.60
2023-05-22T04:14:12.594Z,8.50
2023-05-22T04:17:04.387Z,9.18
2023-05-22T04:19:43.094Z,8.57
2023-05-22T04:22:22.396Z,8.23
2023-05-22T04:25:06.311Z,8.95
2023-05-22T04:30:36.239Z,8.88
2023-05-22T04:33:20.012Z,8.63
2023-05-22T04:35:56.466Z,8.60
2023-05-22T04:42:14.903Z,8.25
2023-05-22T04:50:50.273Z,8.38
2023-05-22T04:53:23.838Z,8.32
2023-05-22T04:59:31.834Z,7.43
2023-05-22T05:02:01.465Z,7.72
2023-05-22T05:04:32.247Z,7.47
2023-05-22T05:14:21.275Z,7.97
2023-05-22T05:17:00.502Z,7.75
2023-05-22T05:19:41.952Z,7.38
2023-05-22T05:25:42.437Z,7.40
2023-05-22T05:31:15.430Z,6.53
2023-05-22T05:34:03.199Z,6.80
2023-05-22T05:36:43.435Z,6.43
2023-05-22T05:39:12.020Z,6.43
2023-05-22T05:41:38.676Z,5.97
2023-05-22T05:44:05.496Z,6.80
2023-05-22T05:46:32.998Z,6.57
2023-05-22T05:49:00.745Z,6.75
2023-05-22T05:51:30.616Z,6.13
2023-05-22T05:53:58.561Z,6.53
2023-05-22T05:56:26.160Z,6.90
2023-05-22T05:58:53.154Z,5.45
2023-05-22T06:01:20.308Z,5.72
2023-05-22T06:03:47.220Z,5.95
2023-05-22T06:06:15.788Z,6.03
2023-05-22T06:08:42.774Z,5.53
2023-05-22T06:11:11.003Z,5.47
2023-05-22T06:13:38.916Z,5.57
2023-05-22T06:16:07.530Z,5.00
2023-05-22T06:18:34.893Z,5.18
2023-05-22T06:21:01.700Z,5.65
2023-05-22T06:23:29.645Z,5.28
2023-05-22T06:25:58.424Z,5.07
2023-05-22T06:28:26.249Z,5.45
2023-05-22T06:30:54.358Z,5.50
2023-05-22T06:33:21.627Z,5.22
2023-05-22T06:35:48.384Z,5.28
2023-05-22T06:38:15.147Z,5.00
2023-05-22T06:40:42.594Z,5.20
2023-05-22T06:43:10.969Z,5.57
2023-05-22T06:45:38.285Z,4.72
2023-05-22T06:48:05.153Z,4.78
2023-05-22T06:50:31.774Z,5.05
2023-05-22T06:52:58.369Z,4.60
2023-05-22T06:55:25.977Z,4.43
2023-05-22T06:57:53.519Z,4.55
2023-05-22T07:00:22.066Z,5.05
2023-05-22T07:02:50.391Z,5.05
2023-05-22T07:05:17.647Z,4.70
2023-05-22T07:07:44.693Z,4.40
2023-05-22T07:10:12.256Z,4.28
2023-05-22T07:12:39.838Z,4.30
2023-05-22T07:15:12.425Z,4.82
2023-05-22T07:17:42.058Z,5.43
2023-05-22T07:20:10.758Z,4.80
2023-05-22T07:22:39.276Z,4.20
2023-05-22T07:25:07.954Z,4.75
2023-05-22T07:27:34.750Z,5.10
2023-05-22T07:30:02.553Z,4.80
2023-05-22T07:32:29.283Z,4.70
2023-05-22T07:34:56.300Z,4.70
2023-05-22T07:37:23.452Z,4.43
2023-05-22T07:39:50.114Z,4.40
2023-05-22T07:42:19.052Z,4.60
2023-05-22T07:44:46.980Z,4.63
2023-05-22T07:47:13.695Z,4.60
2023-05-22T07:49:40.841Z,5.20
2023-05-22T07:52:07.747Z,4.90
2023-05-22T07:54:34.532Z,4.70
2023-05-22T07:57:03.619Z,4.93
2023-05-22T07:59:31.502Z,5.10
2023-05-22T08:01:58.610Z,4.95
2023-05-22T08:04:26.535Z,4.70
2023-05-22T08:06:53.305Z,4.93
2023-05-22T08:09:21.384Z,5.32
2023-05-22T08:11:48.209Z,5.03
2023-05-22T08:14:16.053Z,5.32
2023-05-22T08:16:42.968Z,5.10
2023-05-22T08:19:10.055Z,5.30
2023-05-22T08:21:37.942Z,5.75
2023-05-22T08:24:06.504Z,5.57
2023-05-22T08:26:34.660Z,5.03
2023-05-22T08:29:01.577Z,4.82
2023-05-22T08:31:29.608Z,5.00
2023-05-22T08:34:02.769Z,5.30
2023-05-22T08:36:31.525Z,5.43
2023-05-22T08:38:58.728Z,5.20
2023-05-22T08:41:27.153Z,5.43
2023-05-22T08:43:54.075Z,5.78
2023-05-22T08:46:27.035Z,5.85
2023-05-22T08:48:57.553Z,6.10
2023-05-22T08:51:29.835Z,6.35
2023-05-22T08:53:57.749Z,6.30
2023-05-22T08:56:27.839Z,5.70
2023-05-22T08:58:58.261Z,5.60
2023-05-22T09:01:26.729Z,6.70
2023-05-22T09:03:54.263Z,5.93
2023-05-22T09:06:21.356Z,6.18
2023-05-22T09:08:49.986Z,6.60
2023-05-22T09:11:18.214Z,6.43
2023-05-22T09:13:46.109Z,7.00
2023-05-22T09:16:14.064Z,6.55
2023-05-22T09:18:42.991Z,6.65
2023-05-22T09:21:25.650Z,5.97
2023-05-22T09:24:02.017Z,6.10
2023-05-22T09:26:29.797Z,6.40
2023-05-22T09:28:59.587Z,6.28
2023-05-22T09:31:28.436Z,6.07
2023-05-22T09:33:56.390Z,6.18
2023-05-22T09:36:33.150Z,6.68
2023-05-22T09:39:05.134Z,5.82
2023-05-22T09:41:39.165Z,5.53
2023-05-22T09:44:14.355Z,5.78
2023-05-22T09:46:48.418Z,5.60
2023-05-22T09:49:17.622Z,5.50
2023-05-22T09:51:48.232Z,5.82
2023-05-22T09:54:17.283Z,5.40
2023-05-22T09:56:48.825Z,5.47
2023-05-22T09:59:22.816Z,5.05
2023-05-22T10:01:51.094Z,5.70
2023-05-22T10:04:21.861Z,5.20
2023-05-22T10:06:54.179Z,5.15
2023-05-22T10:09:26.678Z,5.97
2023-05-22T10:11:57.580Z,5.25
2023-05-22T10:14:25.234Z,5.50
2023-05-22T10:16:53.493Z,5.57
2023-05-22T10:19:21.383Z,5.15
2023-05-22T10:21:49.486Z,5.63
2023-05-22T10:24:18.021Z,5.10
2023-05-22T10:26:44.704Z,5.38
2023-05-22T10:29:17.666Z,5.38
2023-05-22T10:31:55.613Z,4.68
2023-05-22T10:34:38.799Z,5.03
2023-05-22T10:37:38.351Z,5.47
2023-05-22T10:40:11.885Z,5.55
2023-05-22T10:42:39.528Z,5.28
2023-05-22T10:45:12.185Z,5.40
2023-05-22T10:47:38.928Z,5.15
2023-05-22T10:50:11.659Z,5.80
2023-05-22T10:52:40.972Z,5.00
2023-05-22T10:55:09.700Z,5.50
2023-05-22T10:57:40.815Z,6.13
2023-05-22T11:00:12.494Z,5.32
2023-05-22T11:02:44.093Z,6.85
2023-05-22T11:05:22.697Z,7.30
2023-05-22T11:07:49.568Z,7.80
2023-05-22T11:10:28.336Z,8.85
2023-05-22T11:13:14.922Z,8.18
2023-05-22T11:15:47.257Z,9.05
2023-05-22T11:18:16.060Z,9.85
2023-05-22T11:20:44.242Z,9.40
2023-05-22T11:23:12.158Z,9.35
2023-05-22T11:25:41.391Z,9.52
2023-05-22T11:28:10.577Z,10.43
2023-05-22T11:30:39.648Z,9.75
2023-05-22T11:33:06.815Z,9.50
2023-05-22T11:35:34.400Z,8.63
2023-05-22T11:38:08.746Z,9.55
2023-05-22T11:40:37.558Z,9.65
2023-05-22T11:43:06.324Z,9.43
2023-05-22T11:45:38.166Z,9.27
2023-05-22T11:48:05.094Z,9.63
2023-05-22T11:50:41.912Z,9.85
2023-05-22T11:53:10.147Z,9.25
2023-05-22T11:55:36.980Z,9.15
2023-05-22T11:58:04.415Z,9.70
2023-05-22T12:00:31.792Z,8.88
2023-05-22T12:02:58.781Z,9.10
2023-05-22T12:05:26.997Z,9.65
2023-05-22T12:07:53.778Z,9.18
2023-05-22T12:10:20.770Z,8.63
2023-05-22T12:12:48.142Z,8.70
2023-05-22T12:15:18.261Z,9.38
2023-05-22T12:17:44.875Z,8.65
2023-05-22T12:20:14.605Z,8.63
2023-05-22T12:22:43.315Z,8.85
2023-05-22T12:25:16.894Z,8.93
2023-05-22T12:27:47.441Z,8.93
2023-05-22T12:30:16.045Z,9.52
2023-05-22T12:32:48.828Z,9.90
2023-05-22T12:35:17.706Z,9.90
2023-05-22T12:37:51.902Z,9.35
2023-05-22T12:40:19.086Z,9.30
2023-05-22T12:42:49.372Z,9.18
2023-05-22T12:45:18.418Z,9.30
2023-05-22T12:47:45.162Z,9.85
2023-05-22T12:50:12.279Z,9.02
2023-05-22T12:52:38.973Z,9.40
2023-05-22T12:55:06.193Z,9.35
2023-05-22T12:57:32.862Z,8.77
2023-05-22T13:00:01.218Z,9.57
2023-05-22T13:02:28.751Z,9.35
2023-05-22T13:04:55.684Z,9.60
2023-05-22T13:07:22.384Z,9.50
2023-05-22T13:09:49.079Z,9.52
2023-05-22T13:12:16.249Z,9.30
2023-05-22T13:14:44.243Z,9.38
2023-05-22T13:17:11.716Z,9.63
2023-05-22T13:19:38.466Z,8.38
2023-05-22T13:22:07.757Z,8.80
2023-05-22T13:24:34.634Z,9.43
2023-05-22T13:27:02.105Z,9.38
2023-05-22T13:29:29.077Z,9.50
2023-05-22T13:31:55.983Z,8.45
2023-05-22T13:34:22.713Z,8.18
2023-05-22T13:36:49.678Z,7.53
2023-05-22T13:39:17.270Z,8.07
2023-05-22T13:41:45.528Z,7.68
2023-05-22T13:44:12.565Z,6.78
2023-05-22T13:46:40.873Z,7.60
2023-05-22T13:49:08.411Z,7.68
2023-05-22T13:51:35.869Z,7.53
2023-05-22T13:54:03.108Z,8.00
2023-05-22T13:56:29.763Z,7.13
2023-05-22T13:58:56.781Z,7.00
2023-05-22T14:01:24.057Z,6.68
2023-05-22T14:03:50.759Z,6.70
2023-05-22T14:06:17.720Z,6.82
2023-05-22T14:08:44.423Z,6.40
2023-05-22T14:11:11.230Z,7.07
2023-05-22T14:13:38.194Z,6.70
2023-05-22T14:16:05.224Z,7.25
2023-05-22T14:18:32.857Z,6.80
2023-05-22T14:20:59.668Z,6.28
2023-05-22T14:23:26.348Z,6.93
2023-05-22T14:25:53.035Z,7.75
2023-05-22T14:28:32.123Z,9.00
2023-05-22T14:30:58.827Z,8.38
2023-05-22T14:33:25.759Z,8.35
2023-05-22T14:35:52.517Z,8.98
2023-05-22T14:38:20.707Z,9.63
2023-05-22T14:40:47.424Z,9.77
2023-05-22T14:43:14.128Z,9.32
2023-05-22T14:45:41.139Z,9.75
2023-05-22T14:48:10.940Z,10.13
2023-05-22T14:50:38.064Z,10.45
2023-05-22T14:53:04.713Z,10.95
2023-05-22T14:55:31.926Z,10.80
2023-05-22T14:57:59.142Z,10.73
2023-05-22T15:00:26.623Z,10.32
2023-05-22T15:02:53.395Z,9.35
2023-05-22T15:05:21.107Z,8.75
2023-05-22T15:07:50.625Z,9.73
2023-05-22T15:10:18.242Z,10.00
2023-05-22T15:12:45.030Z,9.32
2023-05-22T15:15:12.148Z,10.07
2023-05-22T15:17:40.800Z,9.50
2023-05-22T15:20:09.943Z,10.00
2023-05-22T15:22:36.754Z,10.30
2023-05-22T15:25:08.342Z,9.80
2023-05-22T15:27:36.300Z,9.15
2023-05-22T15:30:04.482Z,10.60
2023-05-22T15:32:34.615Z,10.32
2023-05-22T15:35:01.420Z,10.68
2023-05-22T15:37:34.751Z,10.60
2023-05-22T15:40:02.903Z,10.65
2023-05-22T15:42:30.908Z,10.85
2023-05-22T15:44:59.832Z,9.82
2023-05-22T15:47:26.890Z,12.02
2023-05-22T15:49:54.377Z,10.35
2023-05-22T15:52:22.473Z,9.90
2023-05-22T15:54:50.211Z,10.93
2023-05-22T15:57:18.425Z,11.18
2023-05-22T15:59:47.230Z,11.50
2023-05-22T16:02:15.281Z,11.10
2023-05-22T16:04:42.128Z,11.60
2023-05-22T16:07:08.842Z,12.07
2023-05-22T16:09:36.306Z,12.60
2023-05-22T16:12:03.832Z,10.88
2023-05-22T16:14:31.913Z,12.07
2023-05-22T16:16:59.337Z,11.63
2023-05-22T16:19:28.502Z,12.10
2023-05-22T16:21:55.443Z,11.57
2023-05-22T16:24:22.463Z,11.38
2023-05-22T16:26:49.207Z,11.85
2023-05-22T16:29:22.915Z,11.32
2023-05-22T16:31:49.632Z,10.13
2023-05-22T16:34:16.371Z,11.18
2023-05-22T16:36:43.315Z,11.10
2023-05-22T16:39:11.038Z,10.43
2023-05-22T16:41:38.160Z,10.55
2023-05-22T16:44:04.934Z,11.02
2023-05-22T16:46:32.113Z,10.27
2023-05-22T16:48:59.497Z,10.90
2023-05-22T16:51:26.707Z,11.15
2023-05-22T16:53:54.165Z,12.18
2023-05-22T16:56:21.048Z,10.88
2023-05-22T16:58:47.746Z,11.13
2023-05-22T17:01:14.593Z,10.98
2023-05-22T17:03:41.752Z,10.60
2023-05-22T17:06:09.057Z,11.40
2023-05-22T17:08:35.727Z,11.15
2023-05-22T17:11:02.930Z,12.10
2023-05-22T17:13:30.220Z,11.57
2023-05-22T17:15:56.988Z,10.63
2023-05-22T17:18:23.646Z,12.27
2023-05-22T17:20:51.393Z,10.68
2023-05-22T17:23:19.075Z,11.52
2023-05-22T17:25:48.766Z,10.90
2023-05-22T17:28:15.843Z,11.20
2023-05-22T17:30:46.067Z,12.27
2023-05-22T17:33:14.140Z,11.23
2023-05-22T17:35:41.910Z,11.27
2023-05-22T17:38:10.542Z,11.80
2023-05-22T17:40:44.976Z,11.43
2023-05-22T17:46:07.584Z,11.25
2023-05-22T17:48:42.727Z,11.30
2023-05-22T17:51:16.089Z,11.25
2023-05-22T17:56:44.951Z,10.50
2023-05-22T18:02:18.652Z,11.68
2023-05-22T18:04:46.198Z,11.95
2023-05-22T18:07:13.454Z,11.75
2023-05-22T18:09:40.487Z,11.45
2023-05-22T18:12:15.193Z,11.70
2023-05-22T18:14:51.275Z,11.50
2023-05-22T18:17:18.336Z,11.23
2023-05-22T18:19:45.370Z,11.25
2023-05-22T18:22:13.056Z,11.57
2023-05-22T18:24:40.908Z,11.85
2023-05-22T18:27:08.249Z,11.35
2023-05-22T18:29:35.411Z,10.88
2023-05-22T18:32:02.647Z,10.85
2023-05-22T18:34:29.996Z,12.07
2023-05-22T18:36:57.711Z,11.07
2023-05-22T18:39:40.065Z,11.20
2023-05-22T18:42:16.842Z,11.07
2023-05-22T18:45:06.419Z,11.32
2023-05-22T18:47:31.126Z,11.30
2023-05-22T18:49:58.017Z,10.60
2023-05-22T18:52:48.772Z,10.88
2023-05-22T18:55:15.493Z,11.35
2023-05-22T18:57:54.418Z,10.88
2023-05-22T19:00:46.249Z,11.00
2023-05-22T19:03:28.037Z,11.20
2023-05-22T19:05:55.396Z,11.55
2023-05-22T19:08:24.792Z,10.82
2023-05-22T19:10:51.553Z,9.98
2023-05-22T19:13:19.566Z,10.48
2023-05-22T19:15:46.741Z,11.25
2023-05-22T19:18:13.572Z,10.00
2023-05-22T19:20:41.145Z,9.93
2023-05-22T19:23:09.696Z,10.32
2023-05-22T19:25:36.529Z,10.77
2023-05-22T19:28:03.442Z,10.50
2023-05-22T19:30:32.319Z,10.75
2023-05-22T19:32:59.162Z,11.27
2023-05-22T19:35:25.855Z,11.65
2023-05-22T19:37:52.570Z,10.85
2023-05-22T19:40:19.231Z,11.07
2023-05-22T19:42:46.097Z,10.60
2023-05-22T19:45:12.910Z,11.00
2023-05-22T19:47:39.901Z,12.15
2023-05-22T19:50:08.259Z,11.65
2023-05-22T19:52:34.862Z,11.60
2023-05-22T19:55:01.554Z,11.52
2023-05-22T19:57:29.177Z,11.35
2023-05-22T19:59:55.821Z,10.70
2023-05-22T20:02:22.570Z,11.68
2023-05-22T20:04:58.075Z,11.38
2023-05-22T20:07:24.853Z,11.95
2023-05-22T20:09:51.496Z,11.65
2023-05-22T20:12:18.155Z,11.38
2023-05-22T20:14:44.934Z,12.50
2023-05-22T20:17:11.740Z,13.00
2023-05-22T20:19:38.446Z,12.20
2023-05-22T20:22:05.454Z,11.98
2023-05-22T20:24:32.089Z,12.40
2023-05-22T20:26:58.728Z,12.30
2023-05-22T20:29:25.471Z,12.32
2023-05-22T20:31:54.490Z,12.43
2023-05-22T20:34:21.776Z,12.48
2023-05-22T20:36:48.400Z,14.35
2023-05-22T20:39:18.061Z,16.02
2023-05-22T20:41:45.394Z,15.75
2023-05-22T20:44:12.046Z,17.70
2023-05-22T20:46:38.647Z,19.42
2023-05-22T20:49:06.156Z,20.15
2023-05-22T20:51:33.576Z,21.42
2023-05-22T20:54:00.696Z,21.75
2023-05-22T20:56:27.664Z,22.90
2023-05-22T20:58:54.905Z,22.08
2023-05-22T21:01:22.025Z,23.38
2023-05-22T21:03:50.001Z,21.80
2023-05-22T21:06:16.707Z,22.05
2023-05-22T21:08:43.319Z,22.70
2023-05-22T21:11:10.013Z,22.45
2023-05-22T21:13:36.578Z,22.73
2023-05-22T21:16:03.166Z,21.05
2023-05-22T21:18:29.756Z,21.65
2023-05-22T21:20:56.413Z,21.13
2023-05-22T21:23:24.615Z,21.33
2023-05-22T21:25:51.437Z,21.38
2023-05-22T21:28:18.009Z,21.17
2023-05-22T21:30:44.684Z,20.60
2023-05-22T21:33:11.912Z,20.08
2023-05-22T21:35:38.533Z,19.45
2023-05-22T21:38:05.285Z,19.80
2023-05-22T21:40:31.905Z,19.65
2023-05-22T21:42:58.514Z,19.10
2023-05-22T21:45:25.232Z,19.63
2023-05-22T21:47:51.868Z,19.55
2023-05-22T21:50:18.873Z,19.15
2023-05-22T21:52:45.566Z,20.02
2023-05-22T21:55:12.264Z,19.40
2023-05-22T21:57:38.878Z,19.98
2023-05-22T22:00:06.023Z,20.08
2023-05-22T22:02:32.648Z,21.02
2023-05-22T22:04:59.277Z,21.40
2023-05-22T22:07:26.016Z,21.85
2023-05-22T22:09:52.654Z,21.92
2023-05-22T22:12:19.292Z,23.02
2023-05-22T22:14:45.897Z,23.85
2023-05-22T22:17:12.586Z,22.92
2023-05-22T22:19:41.717Z,24.13
2023-05-22T22:22:08.433Z,23.40
2023-05-22T22:24:35.243Z,24.77
2023-05-22T22:27:02.256Z,24.60
2023-05-22T22:29:28.922Z,24.58
2023-05-22T22:31:55.583Z,25.38
2023-05-22T22:34:22.216Z,24.80
2023-05-22T22:36:48.840Z,25.33
2023-05-22T22:39:15.690Z,25.13
2023-05-22T22:41:45.403Z,25.65
2023-05-22T22:44:12.028Z,22.67
2023-05-22T22:46:38.795Z,24.88
2023-05-22T22:49:05.490Z,25.08
2023-05-22T22:51:32.079Z,24.85
2023-05-22T22:53:58.720Z,26.75
2023-05-22T22:56:29.199Z,25.90
2023-05-22T22:58:57.206Z,25.20
2023-05-22T23:01:24.014Z,24.67
2023-05-22T23:03:51.035Z,22.73
2023-05-22T23:06:18.268Z,23.80
2023-05-22T23:08:45.372Z,23.30
2023-05-22T23:11:12.251Z,22.73
2023-05-22T23:13:41.086Z,22.33
2023-05-22T23:16:08.094Z,21.88
2023-05-22T23:18:35.269Z,21.25
2023-05-22T23:21:01.967Z,19.83
2023-05-22T23:23:28.573Z,20.10
2023-05-22T23:25:57.358Z,18.55
2023-05-22T23:28:25.375Z,18.35
2023-05-22T23:30:52.419Z,19.45
2023-05-22T23:33:19.411Z,20.02
2023-05-22T23:35:46.103Z,19.40
2023-05-22T23:38:12.735Z,18.98
2023-05-22T23:40:39.358Z,16.98
2023-05-22T23:43:06.104Z,17.90
2023-05-22T23:45:32.700Z,17.05
2023-05-22T23:47:59.333Z,16.98
2023-05-22T23:50:25.987Z,17.92
2023-05-22T23:52:52.860Z,17.42
2023-05-22T23:55:19.445Z,16.95
2023-05-22T23:57:46.017Z,16.98
